createdAt,value
2023-03-08T00:01:23.595Z,3.00
2023-03-08T00:03:56.485Z,3.00
2023-03-08T00:06:25.342Z,2.70
2023-03-08T00:08:58.216Z,1.83
2023-03-08T00:11:25.566Z,2.00
2023-03-08T00:13:52.960Z,1.40
2023-03-08T00:16:19.985Z,1.97
2023-03-08T00:18:47.200Z,2.23
2023-03-08T00:21:17.863Z,1.20
2023-03-08T00:23:45.795Z,1.60
2023-03-08T00:26:13.719Z,1.87
2023-03-08T00:28:41.273Z,1.20
2023-03-08T00:31:11.802Z,1.33
2023-03-08T00:33:39.138Z,1.77
2023-03-08T00:36:16.031Z,1.83
2023-03-08T00:38:44.057Z,2.00
2023-03-08T00:41:13.724Z,2.17
2023-03-08T00:43:42.410Z,1.70
2023-03-08T00:46:10.723Z,2.43
2023-03-08T00:48:38.554Z,1.53
2023-03-08T00:51:05.874Z,2.60
2023-03-08T00:53:32.992Z,1.70
2023-03-08T00:56:01.189Z,1.63
2023-03-08T00:58:31.423Z,1.30
2023-03-08T01:00:59.508Z,1.33
2023-03-08T01:03:26.996Z,1.53
2023-03-08T01:05:57.704Z,1.40
2023-03-08T01:08:26.862Z,1.00
2023-03-08T01:11:00.600Z,1.10
2023-03-08T01:13:35.377Z,1.30
2023-03-08T01:16:03.376Z,1.50
2023-03-08T01:18:31.148Z,1.37
2023-03-08T01:21:01.493Z,1.30
2023-03-08T01:23:29.818Z,1.23
2023-03-08T01:26:02.284Z,1.00
2023-03-08T01:28:30.518Z,1.00
2023-03-08T01:31:12.110Z,1.33
2023-03-08T01:33:42.336Z,0.90
2023-03-08T01:36:13.066Z,1.00
2023-03-08T01:38:40.136Z,1.23
2023-03-08T01:41:12.638Z,1.00
2023-03-08T01:43:40.545Z,1.10
2023-03-08T01:46:16.032Z,1.07
2023-03-08T01:49:00.201Z,1.03
2023-03-08T01:51:36.028Z,1.87
2023-03-08T01:54:11.448Z,1.20
2023-03-08T01:56:41.139Z,1.00
2023-03-08T01:59:08.886Z,0.87
2023-03-08T02:01:37.144Z,0.73
2023-03-08T02:04:04.417Z,1.00
2023-03-08T02:06:33.279Z,0.70
2023-03-08T02:09:04.790Z,0.90
2023-03-08T02:11:37.537Z,1.40
2023-03-08T02:14:04.779Z,1.20
2023-03-08T02:16:32.911Z,1.20
2023-03-08T02:19:11.388Z,1.53
2023-03-08T02:21:38.512Z,1.27
2023-03-08T02:24:26.263Z,1.23
2023-03-08T02:27:03.712Z,1.90
2023-03-08T02:29:30.965Z,1.57
2023-03-08T02:31:58.033Z,1.60
2023-03-08T02:34:25.149Z,1.50
2023-03-08T02:36:52.309Z,1.40
2023-03-08T02:39:19.416Z,1.43
2023-03-08T02:41:46.973Z,1.57
2023-03-08T02:44:14.105Z,1.60
2023-03-08T02:46:41.224Z,1.30
2023-03-08T02:49:08.372Z,1.47
2023-03-08T02:51:35.415Z,1.27
2023-03-08T02:54:02.601Z,1.47
2023-03-08T02:56:29.749Z,2.07
2023-03-08T02:58:56.890Z,1.77
2023-03-08T03:01:24.624Z,1.40
2023-03-08T03:03:55.345Z,1.47
2023-03-08T03:06:23.142Z,1.90
2023-03-08T03:08:53.339Z,2.17
2023-03-08T03:11:23.170Z,2.23
2023-03-08T03:14:00.124Z,2.50
2023-03-08T03:16:33.514Z,1.80
2023-03-08T03:19:00.633Z,2.20
2023-03-08T03:21:27.896Z,1.77
2023-03-08T03:23:55.891Z,1.73
2023-03-08T03:26:29.774Z,1.90
2023-03-08T03:28:58.865Z,2.10
2023-03-08T03:31:29.992Z,2.57
2023-03-08T03:33:57.919Z,2.00
2023-03-08T03:36:27.095Z,1.90
2023-03-08T03:38:55.488Z,2.20
2023-03-08T03:41:24.225Z,2.50
2023-03-08T03:44:00.741Z,2.70
2023-03-08T03:46:30.010Z,3.30
2023-03-08T03:48:58.772Z,2.80
2023-03-08T03:51:32.055Z,3.63
2023-03-08T03:54:14.409Z,2.10
2023-03-08T03:56:43.800Z,3.00
2023-03-08T03:59:10.867Z,3.40
2023-03-08T04:01:38.130Z,3.67
2023-03-08T04:04:21.358Z,3.37
2023-03-08T04:06:49.388Z,3.70
2023-03-08T04:09:19.857Z,3.07
2023-03-08T04:11:53.731Z,2.70
2023-03-08T04:14:22.449Z,3.43
2023-03-08T04:16:51.273Z,2.80
2023-03-08T04:19:26.292Z,2.90
2023-03-08T04:21:56.507Z,3.50
2023-03-08T04:24:26.957Z,3.17
2023-03-08T04:26:58.139Z,3.20
2023-03-08T04:29:25.319Z,3.80
2023-03-08T04:31:55.684Z,3.50
2023-03-08T04:34:22.866Z,3.83
2023-03-08T04:36:51.279Z,3.93
2023-03-08T04:39:19.282Z,4.07
2023-03-08T04:41:46.415Z,3.33
2023-03-08T04:44:26.630Z,3.50
2023-03-08T04:46:54.624Z,3.97
2023-03-08T04:49:28.660Z,4.43
2023-03-08T04:52:00.607Z,4.17
2023-03-08T04:54:28.715Z,3.97
2023-03-08T04:57:02.114Z,4.43
2023-03-08T04:59:30.698Z,4.37
2023-03-08T05:02:00.686Z,4.70
2023-03-08T05:04:29.791Z,4.53
2023-03-08T05:06:56.926Z,4.37
2023-03-08T05:09:27.430Z,4.73
2023-03-08T05:11:54.553Z,5.10
2023-03-08T05:14:23.152Z,4.00
2023-03-08T05:16:50.699Z,4.50
2023-03-08T05:19:18.057Z,4.90
2023-03-08T05:21:51.795Z,5.00
2023-03-08T05:24:20.227Z,4.87
2023-03-08T05:26:49.107Z,4.70
2023-03-08T05:29:18.414Z,4.60
2023-03-08T05:31:46.716Z,5.07
2023-03-08T05:34:15.247Z,4.60
2023-03-08T05:36:46.405Z,4.33
2023-03-08T05:39:13.535Z,4.40
2023-03-08T05:41:47.252Z,5.03
2023-03-08T05:44:20.871Z,5.77
2023-03-08T05:46:51.286Z,4.73
2023-03-08T05:49:19.399Z,6.27
2023-03-08T05:51:46.903Z,5.70
2023-03-08T05:54:14.650Z,5.97
2023-03-08T05:56:43.749Z,5.77
2023-03-08T05:59:21.290Z,6.30
2023-03-08T06:01:49.281Z,6.47
2023-03-08T06:04:39.635Z,6.27
2023-03-08T06:07:06.930Z,6.80
2023-03-08T06:09:38.520Z,6.97
2023-03-08T06:12:07.913Z,6.63
2023-03-08T06:14:35.023Z,6.60
2023-03-08T06:17:02.333Z,6.40
2023-03-08T06:19:32.584Z,6.83
2023-03-08T06:21:59.670Z,7.00
2023-03-08T06:24:28.042Z,7.60
2023-03-08T06:26:57.693Z,6.40
2023-03-08T06:29:24.748Z,7.40
2023-03-08T06:31:52.068Z,6.30
2023-03-08T06:34:21.889Z,6.10
2023-03-08T06:36:52.261Z,6.50
2023-03-08T06:39:22.327Z,6.90
2023-03-08T06:41:49.515Z,6.37
2023-03-08T06:44:16.585Z,7.40
2023-03-08T06:46:46.671Z,7.10
2023-03-08T06:49:18.408Z,7.83
2023-03-08T06:51:45.518Z,6.67
2023-03-08T06:54:17.368Z,7.90
2023-03-08T06:56:48.472Z,6.60
2023-03-08T06:59:15.707Z,7.40
2023-03-08T07:01:43.253Z,6.77
2023-03-08T07:04:14.602Z,6.60
2023-03-08T07:06:41.659Z,7.43
2023-03-08T07:09:11.236Z,6.10
2023-03-08T07:11:39.378Z,6.53
2023-03-08T07:14:06.399Z,7.00
2023-03-08T07:16:33.505Z,7.83
2023-03-08T07:19:02.966Z,8.70
2023-03-08T07:21:32.282Z,7.73
2023-03-08T07:23:59.347Z,7.43
2023-03-08T07:26:26.488Z,7.70
2023-03-08T07:28:53.541Z,7.10
2023-03-08T07:31:20.735Z,7.30
2023-03-08T07:33:47.819Z,7.07
2023-03-08T07:36:15.019Z,6.83
2023-03-08T07:38:42.067Z,7.20
2023-03-08T07:41:09.173Z,7.43
2023-03-08T07:43:36.185Z,8.13
2023-03-08T07:46:14.774Z,8.30
2023-03-08T07:48:41.934Z,8.23
2023-03-08T07:51:10.328Z,7.00
2023-03-08T07:53:38.178Z,6.43
2023-03-08T07:56:06.469Z,6.80
2023-03-08T07:58:33.534Z,6.17
2023-03-08T08:01:00.896Z,6.87
2023-03-08T08:03:31.938Z,7.27
2023-03-08T08:06:06.382Z,7.70
2023-03-08T08:08:33.792Z,8.03
2023-03-08T08:11:01.257Z,8.43
2023-03-08T08:13:28.457Z,7.77
2023-03-08T08:16:02.902Z,8.10
2023-03-08T08:18:30.047Z,9.40
2023-03-08T08:21:06.690Z,8.30
2023-03-08T08:23:35.327Z,8.70
2023-03-08T08:26:07.975Z,7.97
2023-03-08T08:28:36.617Z,8.53
2023-03-08T08:31:14.239Z,8.73
2023-03-08T08:33:41.739Z,6.93
2023-03-08T08:36:13.815Z,8.00
2023-03-08T08:38:40.988Z,8.60
2023-03-08T08:41:09.131Z,8.40
2023-03-08T08:43:37.318Z,8.70
2023-03-08T08:46:05.542Z,7.90
2023-03-08T08:48:33.790Z,7.53
2023-03-08T08:51:01.452Z,8.53
2023-03-08T08:53:29.024Z,8.80
2023-03-08T08:55:56.486Z,7.93
2023-03-08T08:58:24.327Z,8.53
2023-03-08T09:00:52.063Z,7.60
2023-03-08T09:03:19.405Z,7.63
2023-03-08T09:05:46.560Z,8.20
2023-03-08T09:08:13.696Z,8.00
2023-03-08T09:10:42.264Z,8.10
2023-03-08T09:13:09.473Z,7.77
2023-03-08T09:15:37.365Z,7.57
2023-03-08T09:18:05.700Z,7.03
2023-03-08T09:20:32.803Z,8.73
2023-03-08T09:23:00.001Z,9.17
2023-03-08T09:25:27.174Z,9.07
2023-03-08T09:27:54.212Z,9.37
2023-03-08T09:30:21.504Z,10.20
2023-03-08T09:32:48.614Z,9.30
2023-03-08T09:35:15.875Z,9.73
2023-03-08T09:37:43.168Z,9.83
2023-03-08T09:40:24.394Z,9.30
2023-03-08T09:42:52.278Z,9.03
2023-03-08T09:45:28.425Z,8.30
2023-03-08T09:48:24.598Z,10.17
2023-03-08T09:50:54.280Z,9.47
2023-03-08T09:53:47.516Z,8.73
2023-03-08T09:56:29.537Z,9.13
2023-03-08T09:59:07.720Z,8.90
2023-03-08T10:02:25.091Z,8.40
2023-03-08T10:05:13.946Z,8.23
2023-03-08T10:08:00.668Z,7.57
2023-03-08T10:11:07.624Z,6.90
2023-03-08T10:13:50.717Z,6.83
2023-03-08T10:16:36.106Z,6.70
2023-03-08T10:19:21.777Z,7.37
2023-03-08T10:21:49.197Z,8.17
2023-03-08T10:24:50.783Z,6.87
2023-03-08T10:27:27.732Z,6.63
2023-03-08T10:29:58.920Z,7.80
2023-03-08T10:32:28.063Z,7.03
2023-03-08T10:35:05.725Z,7.60
2023-03-08T10:37:34.390Z,6.90
2023-03-08T10:40:07.732Z,7.90
2023-03-08T10:42:35.970Z,7.30
2023-03-08T10:45:20.790Z,7.20
2023-03-08T10:48:20.557Z,7.37
2023-03-08T10:51:04.788Z,6.80
2023-03-08T10:53:33.132Z,6.17
2023-03-08T10:56:01.923Z,6.27
2023-03-08T10:58:37.324Z,6.70
2023-03-08T11:01:34.120Z,6.40
2023-03-08T11:04:17.773Z,6.37
2023-03-08T11:06:45.234Z,7.80
2023-03-08T11:09:36.920Z,6.70
2023-03-08T11:12:04.369Z,6.07
2023-03-08T11:14:32.064Z,5.67
2023-03-08T11:17:25.304Z,6.80
2023-03-08T11:20:00.667Z,6.10
2023-03-08T11:22:37.882Z,6.67
2023-03-08T11:25:41.785Z,6.53
2023-03-08T11:28:11.705Z,5.67
2023-03-08T11:30:56.508Z,6.93
2023-03-08T11:33:53.417Z,6.20
2023-03-08T11:36:45.383Z,5.73
2023-03-08T11:39:25.714Z,5.87
2023-03-08T11:42:18.637Z,5.27
2023-03-08T11:45:04.628Z,4.83
2023-03-08T11:48:02.636Z,6.23
2023-03-08T11:51:25.156Z,5.33
2023-03-08T11:54:03.497Z,5.90
2023-03-08T11:56:45.606Z,6.30
2023-03-08T11:59:53.300Z,6.67
2023-03-08T12:02:27.108Z,8.10
2023-03-08T12:05:17.639Z,8.60
2023-03-08T12:07:59.989Z,7.80
2023-03-08T12:10:44.688Z,7.90
2023-03-08T12:13:25.606Z,9.20
2023-03-08T12:16:22.510Z,8.10
2023-03-08T12:19:01.024Z,8.30
2023-03-08T12:21:52.707Z,9.23
2023-03-08T12:24:31.803Z,9.67
2023-03-08T12:27:10.811Z,9.40
2023-03-08T12:30:00.276Z,9.50
2023-03-08T12:32:28.416Z,9.97
2023-03-08T12:35:35.800Z,9.00
2023-03-08T12:38:20.078Z,8.37
2023-03-08T12:40:53.836Z,10.20
2023-03-08T12:43:21.062Z,8.73
2023-03-08T12:45:57.368Z,8.00
2023-03-08T12:48:44.561Z,8.57
2023-03-08T12:51:16.334Z,9.83
2023-03-08T12:53:52.570Z,9.43
2023-03-08T12:56:36.592Z,9.77
2023-03-08T12:59:15.504Z,10.97
2023-03-08T13:01:46.296Z,10.93
2023-03-08T13:04:40.840Z,11.07
2023-03-08T13:07:22.850Z,8.80
2023-03-08T13:10:06.652Z,11.27
2023-03-08T13:13:21.107Z,9.77
2023-03-08T13:16:31.485Z,10.83
2023-03-08T13:19:26.762Z,10.67
2023-03-08T13:22:09.182Z,11.60
2023-03-08T13:24:46.945Z,10.90
2023-03-08T13:27:50.040Z,9.83
2023-03-08T13:30:35.333Z,9.43
2023-03-08T13:33:12.843Z,11.60
2023-03-08T13:35:40.041Z,9.17
2023-03-08T13:38:07.596Z,8.37
2023-03-08T13:40:35.742Z,7.77
2023-03-08T13:43:08.555Z,8.10
2023-03-08T13:45:35.939Z,7.13
2023-03-08T13:48:08.829Z,7.43
2023-03-08T13:50:42.662Z,7.70
2023-03-08T13:53:18.815Z,7.70
2023-03-08T13:55:51.369Z,6.67
2023-03-08T13:58:34.983Z,7.97
2023-03-08T14:01:27.691Z,6.40
2023-03-08T14:03:58.423Z,7.40
2023-03-08T14:06:33.745Z,7.80
2023-03-08T14:09:03.420Z,6.40
2023-03-08T14:11:38.203Z,5.43
2023-03-08T14:14:14.531Z,6.57
2023-03-08T14:16:42.194Z,6.70
2023-03-08T14:19:11.141Z,6.80
2023-03-08T14:21:38.729Z,6.60
2023-03-08T14:24:09.892Z,7.13
2023-03-08T14:26:39.600Z,6.77
2023-03-08T14:29:22.754Z,8.17
2023-03-08T14:31:57.781Z,8.10
2023-03-08T14:34:36.145Z,6.90
2023-03-08T14:37:11.278Z,7.00
2023-03-08T14:39:45.556Z,7.10
2023-03-08T14:42:32.591Z,7.23
2023-03-08T14:45:06.947Z,5.60
2023-03-08T14:47:35.705Z,5.80
2023-03-08T14:50:24.810Z,5.47
2023-03-08T14:52:55.518Z,4.90
2023-03-08T14:55:32.381Z,4.33
2023-03-08T14:58:10.310Z,4.70
2023-03-08T15:00:52.045Z,4.30
2023-03-08T15:03:19.323Z,5.03
2023-03-08T15:05:46.711Z,4.00
2023-03-08T15:08:15.850Z,4.40
2023-03-08T15:10:43.347Z,4.03
2023-03-08T15:13:18.352Z,4.13
2023-03-08T15:15:45.751Z,4.90
2023-03-08T15:18:12.996Z,4.03
2023-03-08T15:20:44.801Z,4.83
2023-03-08T15:23:24.093Z,5.40
2023-03-08T15:25:51.676Z,5.40
2023-03-08T15:28:21.926Z,5.57
2023-03-08T15:30:54.909Z,4.77
2023-03-08T15:33:23.529Z,5.17
2023-03-08T15:35:51.504Z,5.13
2023-03-08T15:38:20.958Z,5.83
2023-03-08T15:40:48.148Z,5.30
2023-03-08T15:43:15.171Z,5.60
2023-03-08T15:45:42.318Z,5.70
2023-03-08T15:48:16.737Z,6.43
2023-03-08T15:50:45.140Z,5.27
2023-03-08T15:53:14.239Z,5.67
2023-03-08T15:55:43.978Z,6.57
2023-03-08T15:58:12.072Z,5.83
2023-03-08T16:00:39.788Z,5.90
2023-03-08T16:03:07.004Z,6.90
2023-03-08T16:05:33.964Z,5.30
2023-03-08T16:08:03.839Z,5.53
2023-03-08T16:10:40.393Z,6.30
2023-03-08T16:13:08.455Z,6.83
2023-03-08T16:15:39.579Z,6.23
2023-03-08T16:18:06.629Z,7.23
2023-03-08T16:20:33.722Z,7.10
2023-03-08T16:23:00.902Z,7.10
2023-03-08T16:25:28.077Z,6.27
2023-03-08T16:27:55.163Z,6.80
2023-03-08T16:30:22.531Z,7.43
2023-03-08T16:32:53.416Z,7.90
2023-03-08T16:35:21.178Z,7.60
2023-03-08T16:37:48.201Z,7.00
2023-03-08T16:40:15.582Z,7.50
2023-03-08T16:42:42.872Z,8.70
2023-03-08T16:45:10.519Z,9.40
2023-03-08T16:47:37.642Z,8.50
2023-03-08T16:50:05.374Z,8.93
2023-03-08T16:52:32.446Z,9.20
2023-03-08T16:54:59.548Z,10.13
2023-03-08T16:57:27.109Z,10.80
2023-03-08T16:59:54.367Z,9.60
2023-03-08T17:02:22.481Z,10.57
2023-03-08T17:04:50.510Z,13.03
2023-03-08T17:07:18.970Z,10.80
2023-03-08T17:09:46.441Z,11.47
2023-03-08T17:12:13.922Z,11.40
2023-03-08T17:14:41.295Z,11.47
2023-03-08T17:17:10.436Z,12.00
2023-03-08T17:19:40.433Z,11.43
2023-03-08T17:22:09.328Z,13.17
2023-03-08T17:24:36.532Z,14.67
2023-03-08T17:27:04.414Z,12.53
2023-03-08T17:29:31.505Z,11.57
2023-03-08T17:31:58.598Z,13.60
2023-03-08T17:34:25.727Z,12.40
2023-03-08T17:36:53.481Z,11.83
2023-03-08T17:39:20.831Z,11.90
2023-03-08T17:41:48.085Z,13.40
2023-03-08T17:44:15.304Z,12.23
2023-03-08T17:46:42.581Z,13.83
2023-03-08T17:49:12.056Z,13.07
2023-03-08T17:51:39.692Z,12.27
2023-03-08T17:54:07.487Z,13.27
2023-03-08T17:56:36.605Z,13.53
2023-03-08T17:59:03.743Z,13.20
2023-03-08T18:01:31.803Z,13.53
2023-03-08T18:03:59.927Z,13.10
2023-03-08T18:06:36.059Z,12.67
2023-03-08T18:09:10.157Z,12.97
2023-03-08T18:11:41.275Z,12.23
2023-03-08T18:14:12.146Z,14.83
2023-03-08T18:16:40.275Z,15.53
2023-03-08T18:19:08.033Z,13.43
2023-03-08T18:21:36.566Z,13.30
2023-03-08T18:24:05.292Z,14.20
2023-03-08T18:26:33.890Z,14.13
2023-03-08T18:29:00.956Z,13.50
2023-03-08T18:31:28.915Z,13.30
2023-03-08T18:33:56.085Z,13.87
2023-03-08T18:36:24.160Z,14.27
2023-03-08T18:38:51.392Z,14.50
2023-03-08T18:41:29.547Z,15.43
2023-03-08T18:43:58.829Z,15.13
2023-03-08T18:46:29.358Z,16.17
2023-03-08T18:49:00.766Z,14.77
2023-03-08T18:51:29.679Z,14.30
2023-03-08T18:53:58.371Z,15.17
2023-03-08T18:56:26.782Z,14.97
2023-03-08T18:58:56.003Z,13.97
2023-03-08T19:01:24.276Z,15.30
2023-03-08T19:03:52.536Z,15.73
2023-03-08T19:06:19.615Z,16.50
2023-03-08T19:08:46.701Z,15.73
2023-03-08T19:11:20.704Z,16.00
2023-03-08T19:13:48.692Z,16.30
2023-03-08T19:16:27.779Z,16.00
2023-03-08T19:18:59.013Z,15.50
2023-03-08T19:21:34.014Z,24.70
2023-03-08T19:24:01.675Z,20.27
2023-03-08T19:26:41.111Z,33.47
2023-03-08T19:29:22.630Z,18.53
2023-03-08T19:32:18.694Z,16.03
2023-03-08T19:34:45.960Z,16.20
2023-03-08T19:37:14.384Z,15.63
2023-03-08T19:39:43.698Z,17.27
2023-03-08T19:42:15.654Z,21.97
2023-03-08T19:44:48.306Z,21.83
2023-03-08T19:47:16.827Z,17.10
2023-03-08T19:49:44.485Z,16.70
2023-03-08T19:52:16.073Z,19.60
2023-03-08T19:54:43.327Z,17.80
2023-03-08T19:57:10.750Z,16.93
2023-03-08T19:59:38.260Z,16.83
2023-03-08T20:02:08.842Z,17.47
2023-03-08T20:04:36.598Z,16.43
2023-03-08T20:07:04.951Z,18.03
2023-03-08T20:09:32.189Z,17.00
2023-03-08T20:11:59.360Z,18.30
2023-03-08T20:14:27.886Z,17.57
2023-03-08T20:16:55.949Z,16.80
2023-03-08T20:19:23.391Z,16.57
2023-03-08T20:21:50.765Z,18.40
2023-03-08T20:24:19.266Z,18.93
2023-03-08T20:26:46.717Z,17.13
2023-03-08T20:29:14.007Z,16.83
2023-03-08T20:31:41.804Z,17.90
2023-03-08T20:34:09.221Z,17.10
2023-03-08T20:36:37.369Z,18.40
2023-03-08T20:39:04.650Z,19.50
2023-03-08T20:41:31.814Z,16.60
2023-03-08T20:43:58.882Z,18.13
2023-03-08T20:46:33.241Z,20.37
2023-03-08T20:49:00.980Z,17.00
2023-03-08T20:51:28.448Z,17.07
2023-03-08T20:53:56.617Z,18.53
2023-03-08T20:56:26.186Z,17.90
2023-03-08T20:58:54.897Z,18.90
2023-03-08T21:01:30.203Z,17.90
2023-03-08T21:03:57.550Z,19.17
2023-03-08T21:06:28.981Z,18.80
2023-03-08T21:08:56.568Z,17.70
2023-03-08T21:11:23.999Z,18.60
2023-03-08T21:13:52.453Z,18.37
2023-03-08T21:16:22.375Z,18.07
2023-03-08T21:18:51.805Z,18.93
2023-03-08T21:21:34.488Z,19.67
2023-03-08T21:24:08.532Z,20.80
2023-03-08T21:26:35.876Z,21.77
2023-03-08T21:29:06.758Z,20.87
2023-03-08T21:31:37.646Z,18.23
2023-03-08T21:34:06.946Z,18.77
2023-03-08T21:36:35.330Z,19.60
2023-03-08T21:39:03.507Z,17.50
2023-03-08T21:41:34.538Z,20.00
2023-03-08T21:44:04.408Z,21.27
2023-03-08T21:46:31.989Z,20.60
2023-03-08T21:48:59.090Z,20.20
2023-03-08T21:51:26.151Z,20.27
2023-03-08T21:53:53.263Z,20.23
2023-03-08T21:56:20.384Z,20.63
2023-03-08T21:58:47.482Z,21.83
2023-03-08T22:01:30.387Z,21.90
2023-03-08T22:03:59.518Z,21.40
2023-03-08T22:06:26.999Z,20.50
2023-03-08T22:08:54.428Z,20.50
2023-03-08T22:11:23.445Z,21.33
2023-03-08T22:13:57.406Z,20.60
2023-03-08T22:16:26.129Z,21.30
2023-03-08T22:18:59.724Z,23.73
2023-03-08T22:21:28.201Z,21.10
2023-03-08T22:23:59.196Z,20.87
2023-03-08T22:26:28.196Z,21.30
2023-03-08T22:28:55.836Z,20.73
2023-03-08T22:31:28.939Z,21.73
2023-03-08T22:33:55.992Z,20.97
2023-03-08T22:36:24.094Z,19.90
2023-03-08T22:38:51.261Z,22.07
2023-03-08T22:41:25.371Z,19.13
2023-03-08T22:43:53.030Z,22.00
2023-03-08T22:46:26.449Z,22.40
2023-03-08T22:48:56.501Z,22.43
2023-03-08T22:51:25.214Z,24.17
2023-03-08T22:53:52.302Z,23.63
2023-03-08T22:56:24.313Z,22.33
2023-03-08T22:58:52.075Z,20.00
2023-03-08T23:01:22.635Z,21.03
2023-03-08T23:03:50.658Z,22.90
2023-03-08T23:06:18.558Z,21.67
2023-03-08T23:08:46.960Z,21.97
2023-03-08T23:11:14.780Z,20.97
2023-03-08T23:13:42.287Z,18.93
2023-03-08T23:16:13.784Z,22.17
2023-03-08T23:18:41.363Z,20.80
2023-03-08T23:21:13.059Z,21.40
2023-03-08T23:23:40.772Z,21.47
2023-03-08T23:26:11.265Z,21.53
2023-03-08T23:28:38.504Z,20.70
2023-03-08T23:31:19.121Z,19.00
2023-03-08T23:33:47.172Z,20.33
2023-03-08T23:36:16.919Z,19.80
2023-03-08T23:38:44.803Z,20.23
2023-03-08T23:41:13.924Z,19.97
2023-03-08T23:43:42.154Z,19.50
2023-03-08T23:46:16.410Z,19.80
2023-03-08T23:48:45.446Z,18.10
2023-03-08T23:51:16.824Z,20.30
2023-03-08T23:53:43.906Z,20.30
2023-03-08T23:56:30.792Z,19.70
2023-03-08T23:59:01.229Z,22.77
